Time;durP1;ratioP1;P1;durP2;ratioP2;P2;SDS_P1;SDS_P2;PMS_P1;PMS_P2;Temp;Humidity;BMP_temperature;BMP_pressure;BME280_temperature;BME280_humidity;BME280_pressure;Samples;Min_cycle;Max_cycle;Signal;HPM_P1;HPM_P2
2022/07/12 00:01:53;;;;;;;0.25;0.25;;;15.20;99.90;;;;;;5038847;28;20036;-80
2022/07/12 00:04:19;;;;;;;0.00;0.00;;;15.20;99.90;;;;;;5038520;28;20090;-81
2022/07/12 00:06:44;;;;;;;0.10;0.10;;;15.20;99.90;;;;;;5033239;28;20103;-81
2022/07/12 00:09:10;;;;;;;0.05;0.05;;;15.20;99.90;;;;;;5041483;28;20045;-81
2022/07/12 00:11:37;;;;;;;0.50;0.17;;;15.20;99.90;;;;;;5035051;28;20080;-82
2022/07/12 00:14:03;;;;;;;0.15;0.15;;;15.20;99.90;;;;;;5032959;28;20033;-82
2022/07/12 00:16:29;;;;;;;30.88;1.23;;;15.20;99.90;;;;;;5011243;28;20400;-82
2022/07/12 00:18:54;;;;;;;0.10;0.10;;;15.20;99.90;;;;;;5018546;28;20046;-82
2022/07/12 00:21:20;;;;;;;2.35;0.60;;;15.20;99.90;;;;;;5021399;28;20054;-80
2022/07/12 00:23:46;;;;;;;0.20;0.20;;;15.20;99.90;;;;;;5021633;28;20055;-80
2022/07/12 00:26:12;;;;;;;0.70;0.55;;;15.20;99.90;;;;;;5011256;28;20042;-80
2022/07/12 00:28:38;;;;;;;0.10;0.10;;;15.20;99.90;;;;;;5002005;28;20045;-80
2022/07/12 00:31:03;;;;;;;0.05;0.05;;;15.20;99.90;;;;;;5034221;28;20040;-80
2022/07/12 00:33:29;;;;;;;0.28;0.22;;;15.20;99.90;;;;;;5021632;28;20049;-80
2022/07/12 00:35:55;;;;;;;1.85;0.45;;;15.20;99.90;;;;;;5021234;28;20120;-80
2022/07/12 00:38:21;;;;;;;0.00;0.00;;;15.20;99.90;;;;;;5037276;28;20045;-80
2022/07/12 00:40:47;;;;;;;0.10;0.10;;;15.20;99.90;;;;;;5037572;28;20033;-80
2022/07/12 00:43:13;;;;;;;0.00;0.00;;;15.20;99.90;;;;;;5037178;28;20103;-80
2022/07/12 00:45:39;;;;;;;0.75;0.75;;;15.20;99.90;;;;;;5020707;28;20138;-81
2022/07/12 00:48:05;;;;;;;0.30;0.30;;;15.20;99.90;;;;;;5004358;28;20130;-81
2022/07/12 00:50:31;;;;;;;0.20;0.20;;;15.20;99.90;;;;;;5021044;28;20053;-81
2022/07/12 00:52:58;;;;;;;0.45;0.45;;;15.20;99.90;;;;;;5037213;28;20463;-83
2022/07/12 00:55:24;;;;;;;0.03;0.03;;;15.10;99.90;;;;;;5020399;28;20041;-83
2022/07/12 00:57:50;;;;;;;0.20;0.13;;;15.20;99.90;;;;;;5037919;28;20047;-83
2022/07/12 01:00:19;;;;;;;0.03;0.03;;;15.20;99.90;;;;;;5037807;28;20040;-83
2022/07/12 01:02:46;;;;;;;3.10;0.70;;;15.20;99.90;;;;;;5037372;28;20487;-83
2022/07/12 01:05:13;;;;;;;0.20;0.20;;;15.20;99.90;;;;;;5037618;28;20048;-83
2022/07/12 01:07:39;;;;;;;0.32;0.20;;;15.20;99.90;;;;;;5020967;28;20487;-83
2022/07/12 01:10:06;;;;;;;0.10;0.10;;;15.10;99.90;;;;;;5037740;28;20041;-82
2022/07/12 01:12:32;;;;;;;0.17;0.17;;;15.10;99.90;;;;;;5037153;28;20036;-82
2022/07/12 01:14:59;;;;;;;0.00;0.00;;;15.20;99.90;;;;;;5020767;28;20091;-83
2022/07/12 01:17:26;;;;;;;0.10;0.10;;;15.10;99.90;;;;;;5037800;28;20040;-83
2022/07/12 01:19:54;;;;;;;0.00;0.00;;;15.10;99.90;;;;;;5037668;28;20045;-82
2022/07/12 01:22:25;;;;;;;0.00;0.00;;;15.00;99.90;;;;;;5037406;28;20041;-82
2022/07/12 01:24:51;;;;;;;0.00;0.00;;;15.00;99.90;;;;;;5020256;28;20041;-83
2022/07/12 01:27:17;;;;;;;0.55;0.25;;;15.00;99.90;;;;;;5037355;28;20128;-81
2022/07/12 01:29:43;;;;;;;0.17;0.17;;;15.00;99.90;;;;;;5020900;28;20128;-81
2022/07/12 01:32:24;;;;;;;0.22;0.20;;;15.00;99.90;;;;;;5019817;28;20450;-81
2022/07/12 01:34:53;;;;;;;0.20;0.20;;;15.00;99.90;;;;;;5020003;28;20041;-80
2022/07/12 01:37:20;;;;;;;0.17;0.17;;;15.00;99.90;;;;;;5018829;28;20041;-80
2022/07/12 01:39:47;;;;;;;0.20;0.20;;;15.00;99.90;;;;;;5049830;28;20048;-80
2022/07/12 01:42:13;;;;;;;0.50;0.50;;;14.90;99.90;;;;;;5017436;28;20041;-80
2022/07/12 01:44:40;;;;;;;0.20;0.20;;;14.90;99.90;;;;;;5036187;28;20048;-83
2022/07/12 01:47:06;;;;;;;2.92;0.35;;;14.90;99.90;;;;;;5039512;28;20049;-82
2022/07/12 01:49:32;;;;;;;0.28;0.25;;;14.80;99.90;;;;;;5016639;28;20072;-83
2022/07/12 01:51:58;;;;;;;0.10;0.10;;;14.80;99.90;;;;;;5036014;28;20075;-83
2022/07/12 01:54:25;;;;;;;0.20;0.20;;;14.80;99.90;;;;;;5036192;28;20049;-82
2022/07/12 01:56:52;;;;;;;0.40;0.13;;;14.80;99.90;;;;;;5022737;28;20095;-83
2022/07/12 01:59:22;;;;;;;0.35;0.35;;;14.70;99.90;;;;;;5031509;28;20040;-82
2022/07/12 02:01:48;;;;;;;0.20;0.20;;;14.70;99.90;;;;;;5018959;28;20033;-83
2022/07/12 02:04:18;;;;;;;0.22;0.20;;;14.70;99.90;;;;;;5035951;28;20045;-83
2022/07/12 02:06:48;;;;;;;0.00;0.00;;;14.60;99.90;;;;;;5021996;28;20120;-83
2022/07/12 02:09:15;;;;;;;0.40;0.38;;;14.70;99.90;;;;;;5017461;28;20412;-83
2022/07/12 02:11:42;;;;;;;1.08;0.45;;;14.60;99.90;;;;;;5011926;28;20075;-83
2022/07/12 02:14:09;;;;;;;0.00;0.00;;;14.60;99.90;;;;;;5000054;28;20175;-83
2022/07/12 02:16:34;;;;;;;0.28;0.28;;;14.60;99.90;;;;;;5032945;28;20052;-81
2022/07/12 02:19:01;;;;;;;0.17;0.17;;;14.60;99.90;;;;;;5030911;28;20037;-81
2022/07/12 02:21:27;;;;;;;0.45;0.32;;;14.60;99.90;;;;;;5050222;28;20041;-81
2022/07/12 02:23:53;;;;;;;0.20;0.20;;;14.60;99.90;;;;;;5014294;28;20032;-81
2022/07/12 02:26:19;;;;;;;0.00;0.00;;;14.60;99.90;;;;;;5020021;28;20048;-81
2022/07/12 02:28:44;;;;;;;0.30;0.30;;;14.50;99.90;;;;;;5010363;28;20566;-81
2022/07/12 02:31:10;;;;;;;0.20;0.20;;;14.50;99.90;;;;;;5026961;28;20040;-81
2022/07/12 02:33:36;;;;;;;0.10;0.10;;;14.50;99.90;;;;;;5018069;28;20045;-82
2022/07/12 02:36:02;;;;;;;0.05;0.05;;;14.50;99.90;;;;;;5035967;28;20073;-83
2022/07/12 02:38:28;;;;;;;0.80;0.75;;;14.50;99.90;;;;;;5036061;28;20033;-83
2022/07/12 02:40:54;;;;;;;0.20;0.20;;;14.50;99.90;;;;;;5019723;28;20094;-83
2022/07/12 02:43:24;;;;;;;0.57;0.47;;;14.50;99.90;;;;;;5019391;28;20106;-82
2022/07/12 02:45:51;;;;;;;0.08;0.08;;;14.50;99.90;;;;;;5036211;28;20049;-82
2022/07/12 02:48:17;;;;;;;0.20;0.20;;;14.50;99.90;;;;;;5035558;28;20076;-83
2022/07/12 02:50:43;;;;;;;0.20;0.20;;;14.50;99.90;;;;;;5019200;28;20471;-81
2022/07/12 02:53:10;;;;;;;0.13;0.13;;;14.50;99.90;;;;;;5019412;28;20039;-81
2022/07/12 02:55:37;;;;;;;0.47;0.47;;;14.50;99.90;;;;;;5018102;28;20040;-81
2022/07/12 02:58:05;;;;;;;0.10;0.10;;;14.50;99.90;;;;;;5035404;28;20049;-81
2022/07/12 03:00:32;;;;;;;0.22;0.15;;;14.50;99.90;;;;;;5035750;28;20049;-81
2022/07/12 03:02:58;;;;;;;0.00;0.00;;;14.50;99.90;;;;;;5019015;28;20037;-81
2022/07/12 03:05:24;;;;;;;0.28;0.25;;;14.50;99.90;;;;;;5035358;28;20171;-81
2022/07/12 03:07:50;;;;;;;0.10;0.10;;;14.50;99.90;;;;;;5019293;28;20083;-81
2022/07/12 03:10:16;;;;;;;0.10;0.10;;;14.50;99.90;;;;;;5037721;28;20076;-82
2022/07/12 03:12:42;;;;;;;0.13;0.13;;;14.50;99.90;;;;;;5039350;28;20055;-81
2022/07/12 03:15:08;;;;;;;0.00;0.00;;;14.50;99.90;;;;;;5039425;28;20456;-81
2022/07/12 03:17:34;;;;;;;0.10;0.10;;;14.50;99.90;;;;;;5039479;28;20033;-81
2022/07/12 03:19:59;;;;;;;0.00;0.00;;;14.40;99.90;;;;;;5022986;28;20045;-81
2022/07/12 03:22:26;;;;;;;0.08;0.08;;;14.40;99.90;;;;;;5039624;28;20043;-81
2022/07/12 03:24:51;;;;;;;0.40;0.40;;;14.40;99.90;;;;;;5039463;28;20094;-80
2022/07/12 03:27:18;;;;;;;0.20;0.20;;;14.40;99.90;;;;;;5006299;28;20501;-80
2022/07/12 03:29:43;;;;;;;0.22;0.22;;;14.40;99.90;;;;;;5039667;28;20411;-80
2022/07/12 03:32:09;;;;;;;0.85;0.35;;;14.30;99.90;;;;;;5039238;28;20056;-80
2022/07/12 03:34:36;;;;;;;0.00;0.00;;;14.20;99.90;;;;;;5039026;28;20041;-80
2022/07/12 03:37:02;;;;;;;0.30;0.30;;;14.20;99.90;;;;;;5022619;28;20032;-80
2022/07/12 03:39:28;;;;;;;0.00;0.00;;;14.10;99.90;;;;;;5022582;28;20367;-80
2022/07/12 03:41:53;;;;;;;0.30;0.30;;;14.00;99.90;;;;;;5023027;28;20401;-80
2022/07/12 03:44:19;;;;;;;0.20;0.20;;;13.90;99.90;;;;;;5035961;28;20183;-80
2022/07/12 03:46:45;;;;;;;0.08;0.08;;;13.90;99.90;;;;;;5019339;28;20496;-80
2022/07/12 03:49:11;;;;;;;0.00;0.00;;;13.90;99.90;;;;;;5002776;28;20132;-80
2022/07/12 03:51:36;;;;;;;0.20;0.20;;;13.80;99.90;;;;;;5035664;28;20034;-80
2022/07/12 03:54:05;;;;;;;0.00;0.00;;;13.80;99.90;;;;;;5035413;28;20049;-80
2022/07/12 03:59:14;;;;;;;0.10;0.10;;;13.80;99.90;;;;;;5042481;22;20045;-83
2022/07/12 04:01:40;;;;;;;0.28;0.20;;;13.90;99.90;;;;;;5050556;28;20053;-83
2022/07/12 04:04:06;;;;;;;0.05;0.05;;;13.80;99.90;;;;;;5023316;28;20557;-83
2022/07/12 04:06:31;;;;;;;0.30;0.30;;;13.80;99.90;;;;;;5034917;28;20045;-83
2022/07/12 04:08:57;;;;;;;0.17;0.17;;;13.80;99.90;;;;;;5034526;28;20124;-82
2022/07/12 04:11:23;;;;;;;0.10;0.10;;;13.80;99.90;;;;;;5023474;28;20042;-82
2022/07/12 04:13:48;;;;;;;0.50;0.50;;;13.80;99.90;;;;;;5020632;28;20083;-82
2022/07/12 04:16:14;;;;;;;0.00;0.00;;;13.80;99.90;;;;;;5034510;28;20041;-83
2022/07/12 04:18:40;;;;;;;0.10;0.10;;;13.80;99.90;;;;;;5034448;28;20069;-83
2022/07/12 04:21:05;;;;;;;0.00;0.00;;;13.80;99.90;;;;;;5017483;28;20045;-83
2022/07/12 04:23:31;;;;;;;0.10;0.10;;;13.80;99.90;;;;;;5034623;28;20037;-82
2022/07/12 04:25:57;;;;;;;0.20;0.20;;;13.80;99.90;;;;;;5020337;28;20408;-82
2022/07/12 04:28:22;;;;;;;0.10;0.10;;;13.80;99.90;;;;;;5014526;28;20045;-83
2022/07/12 04:30:48;;;;;;;0.17;0.17;;;13.80;99.90;;;;;;5014538;28;20100;-83
2022/07/12 04:33:15;;;;;;;0.00;0.00;;;13.90;99.90;;;;;;5014340;28;20518;-82
2022/07/12 04:35:41;;;;;;;0.00;0.00;;;13.90;99.90;;;;;;5029354;28;20087;-82
2022/07/12 04:38:07;;;;;;;0.13;0.13;;;14.00;99.90;;;;;;5033957;28;20475;-83
2022/07/12 04:40:33;;;;;;;0.10;0.10;;;14.20;99.90;;;;;;5034423;28;20033;-83
2022/07/12 04:42:59;;;;;;;0.20;0.20;;;14.30;99.90;;;;;;5033936;28;20409;-83
2022/07/12 04:45:25;;;;;;;0.00;0.00;;;14.50;99.90;;;;;;5034006;28;20045;-82
2022/07/12 04:47:51;;;;;;;0.22;0.20;;;14.60;99.90;;;;;;5017404;28;20051;-81
2022/07/12 04:50:17;;;;;;;0.10;0.10;;;14.80;99.90;;;;;;5033899;28;20049;-80
2022/07/12 04:52:42;;;;;;;0.20;0.20;;;14.90;99.90;;;;;;5017246;28;20049;-80
2022/07/12 04:55:08;;;;;;;0.00;0.00;;;15.00;99.90;;;;;;5010268;28;20037;-80
2022/07/12 04:57:34;;;;;;;0.10;0.10;;;15.10;99.90;;;;;;5016669;28;20076;-80
2022/07/12 05:00:00;;;;;;;0.30;0.13;;;15.30;99.90;;;;;;5033398;28;20061;-80
2022/07/12 05:02:26;;;;;;;0.10;0.10;;;15.40;99.90;;;;;;5017036;28;20049;-80
2022/07/12 05:04:52;;;;;;;0.00;0.00;;;15.60;99.90;;;;;;5033737;28;20124;-83
2022/07/12 05:07:18;;;;;;;0.32;0.20;;;15.70;99.90;;;;;;5017280;28;20037;-83
2022/07/12 05:09:44;;;;;;;0.20;0.20;;;15.80;99.90;;;;;;5017201;28;20506;-83
2022/07/12 05:12:09;;;;;;;0.00;0.00;;;16.00;99.90;;;;;;5033119;28;20033;-83
2022/07/12 05:14:35;;;;;;;0.10;0.10;;;16.10;99.90;;;;;;5000257;28;20053;-83
2022/07/12 05:17:01;;;;;;;0.10;0.10;;;16.20;99.90;;;;;;5016391;28;20037;-83
2022/07/12 05:19:26;;;;;;;0.10;0.10;;;16.20;99.90;;;;;;5045902;28;20041;-83
2022/07/12 05:21:52;;;;;;;0.03;0.03;;;16.30;99.90;;;;;;5050049;28;20436;-83
2022/07/12 05:24:18;;;;;;;0.13;0.13;;;16.40;99.90;;;;;;5033168;28;20041;-83
2022/07/12 05:26:43;;;;;;;0.10;0.10;;;16.40;99.90;;;;;;5016899;28;20042;-83
2022/07/12 05:29:09;;;;;;;0.00;0.00;;;16.50;99.90;;;;;;5016960;28;20087;-83
2022/07/12 05:31:35;;;;;;;0.00;0.00;;;16.70;99.90;;;;;;5032641;28;20046;-83
2022/07/12 05:34:01;;;;;;;0.00;0.00;;;16.80;99.90;;;;;;5032719;28;20077;-83
2022/07/12 05:36:28;;;;;;;0.10;0.10;;;17.00;99.90;;;;;;5032803;28;20048;-83
2022/07/12 05:38:53;;;;;;;0.30;0.20;;;17.10;99.90;;;;;;5016659;28;20029;-83
2022/07/12 05:41:19;;;;;;;0.00;0.00;;;17.20;99.90;;;;;;5033257;28;20541;-83
2022/07/12 05:43:45;;;;;;;0.00;0.00;;;17.30;99.90;;;;;;5016640;28;20404;-83
2022/07/12 05:46:11;;;;;;;0.00;0.00;;;17.40;99.90;;;;;;5016737;28;20044;-83
2022/07/12 05:48:37;;;;;;;0.10;0.10;;;17.50;99.90;;;;;;5032742;28;20471;-83
2022/07/12 05:53:48;;;;;;;0.00;0.00;;;17.60;99.90;;;;;;5032622;28;20068;-80
2022/07/12 05:56:13;;;;;;;0.10;0.10;;;17.70;99.90;;;;;;5008973;28;20476;-80
2022/07/12 05:58:39;;;;;;;0.10;0.10;;;17.90;99.90;;;;;;5024665;28;20090;-80
2022/07/12 06:01:06;;;;;;;0.00;0.00;;;18.10;99.90;;;;;;5035762;28;20155;-80
2022/07/12 06:03:32;;;;;;;0.10;0.10;;;18.40;99.90;;;;;;5035393;28;20037;-80
2022/07/12 06:05:59;;;;;;;0.00;0.00;;;18.80;99.90;;;;;;5019270;28;20048;-80
2022/07/12 06:08:25;;;;;;;0.65;0.30;;;19.20;99.90;;;;;;5002535;28;20037;-80
2022/07/12 06:10:51;;;;;;;0.20;0.20;;;19.70;99.90;;;;;;5035607;28;20090;-83
2022/07/12 06:13:16;;;;;;;0.30;0.30;;;20.00;99.90;;;;;;5034014;28;20048;-83
2022/07/12 06:15:42;;;;;;;0.10;0.10;;;20.10;99.90;;;;;;5015870;28;20041;-83
2022/07/12 06:18:08;;;;;;;0.10;0.10;;;20.30;99.90;;;;;;5015592;28;20040;-83
2022/07/12 06:20:34;;;;;;;0.13;0.13;;;20.70;99.90;;;;;;5015782;28;20041;-83
2022/07/12 06:23:00;;;;;;;0.20;0.20;;;21.10;99.90;;;;;;5028882;28;20127;-83
2022/07/12 06:25:26;;;;;;;0.10;0.10;;;21.40;99.90;;;;;;5035743;28;20084;-83
2022/07/12 06:27:52;;;;;;;0.20;0.20;;;21.70;99.90;;;;;;5033766;28;20032;-80
2022/07/12 06:30:18;;;;;;;0.00;0.00;;;22.20;99.90;;;;;;5018942;28;20037;-81
2022/07/12 06:32:50;;;;;;;0.28;0.28;;;22.80;99.90;;;;;;5034571;28;20048;-81
2022/07/12 06:35:16;;;;;;;0.00;0.00;;;23.10;99.90;;;;;;5035290;28;20041;-81
2022/07/12 06:37:42;;;;;;;0.20;0.20;;;23.20;99.90;;;;;;5035220;28;20036;-81
2022/07/12 06:40:09;;;;;;;0.10;0.10;;;23.30;99.90;;;;;;5034929;28;20491;-81
2022/07/12 06:42:35;;;;;;;0.10;0.10;;;23.50;99.90;;;;;;5034826;28;20072;-81
2022/07/12 06:45:01;;;;;;;0.10;0.10;;;24.30;99.90;;;;;;5035054;28;20449;-81
2022/07/12 06:47:27;;;;;;;0.00;0.00;;;24.70;99.90;;;;;;5035278;28;20073;-81
2022/07/12 06:49:53;;;;;;;0.38;0.32;;;25.10;99.90;;;;;;5018636;28;20487;-81
2022/07/12 06:52:19;;;;;;;0.10;0.10;;;25.20;99.90;;;;;;5035270;28;20040;-81
2022/07/12 06:54:45;;;;;;;0.10;0.10;;;25.10;99.90;;;;;;5018411;28;20090;-81
2022/07/12 06:57:10;;;;;;;0.10;0.10;;;24.70;99.90;;;;;;5031848;28;20462;-81
2022/07/12 06:59:36;;;;;;;0.10;0.10;;;24.20;99.90;;;;;;5031387;28;20450;-83
2022/07/12 07:02:02;;;;;;;0.08;0.08;;;24.00;99.90;;;;;;5015050;28;20049;-83
2022/07/12 07:04:28;;;;;;;0.10;0.10;;;24.00;99.90;;;;;;5018436;28;20048;-83
2022/07/12 07:06:54;;;;;;;0.30;0.30;;;24.20;99.90;;;;;;5034749;28;20391;-83
2022/07/12 07:09:20;;;;;;;0.10;0.10;;;24.80;99.90;;;;;;5034736;28;20131;-83
2022/07/12 07:11:46;;;;;;;0.10;0.10;;;25.30;99.90;;;;;;5034797;28;20199;-83
2022/07/12 07:14:11;;;;;;;0.00;0.00;;;25.90;99.90;;;;;;5033408;28;20037;-83
2022/07/12 07:16:37;;;;;;;0.10;0.10;;;26.50;99.90;;;;;;5002350;28;20033;-82
2022/07/12 07:19:03;;;;;;;0.10;0.10;;;26.80;99.90;;;;;;5018481;28;20106;-82
2022/07/12 07:21:28;;;;;;;0.10;0.10;;;27.30;99.90;;;;;;5018447;28;20399;-82
2022/07/12 07:23:55;;;;;;;0.10;0.10;;;27.70;99.90;;;;;;5034140;28;20099;-82
2022/07/12 07:26:21;;;;;;;0.30;0.30;;;27.90;99.90;;;;;;5034702;28;20115;-82
2022/07/12 07:31:51;;;;;;;0.10;0.10;;;28.30;99.90;;;;;;4936452;29;20063;-82
2022/07/12 07:34:16;;;;;;;0.10;0.10;;;28.50;99.90;;;;;;4936366;29;20047;-83
2022/07/12 07:36:42;;;;;;;0.20;0.20;;;28.60;99.90;;;;;;4973029;28;20041;-83
2022/07/12 07:39:08;;;;;;;0.35;0.35;;;28.10;99.20;;;;;;4998795;28;20049;-84
2022/07/12 07:41:34;;;;;;;0.35;0.35;;;27.50;99.90;;;;;;5015114;28;20477;-84
2022/07/12 07:43:59;;;;;;;0.20;0.20;;;26.90;99.90;;;;;;5015116;28;20562;-82
2022/07/12 07:46:25;;;;;;;0.08;0.08;;;26.50;99.90;;;;;;4999031;28;20041;-82
2022/07/12 07:48:51;;;;;;;0.20;0.20;;;26.20;99.90;;;;;;5034609;28;20045;-82
2022/07/12 07:51:17;;;;;;;0.22;0.22;;;26.40;99.90;;;;;;5034010;28;20049;-83
2022/07/12 07:53:42;;;;;;;0.00;0.00;;;26.60;99.90;;;;;;5018140;28;20439;-82
2022/07/12 07:56:08;;;;;;;0.10;0.10;;;26.70;99.90;;;;;;5033003;28;20036;-82
2022/07/12 07:58:34;;;;;;;0.35;0.32;;;26.60;99.90;;;;;;5034569;28;20436;-82
2022/07/12 08:01:00;;;;;;;0.08;0.08;;;26.40;99.90;;;;;;5018428;28;20049;-82
2022/07/12 08:03:25;;;;;;;0.30;0.30;;;26.20;99.90;;;;;;5018114;28;20045;-82
2022/07/12 08:05:51;;;;;;;0.10;0.10;;;26.10;99.90;;;;;;5021323;28;20041;-82
2022/07/12 08:08:18;;;;;;;0.08;0.08;;;26.00;99.90;;;;;;5021824;28;20398;-82
2022/07/12 08:10:44;;;;;;;0.10;0.10;;;25.90;99.90;;;;;;5021185;28;20052;-82
2022/07/12 08:13:10;;;;;;;0.52;0.52;;;26.10;99.90;;;;;;5037585;28;20037;-82
2022/07/12 08:15:36;;;;;;;0.10;0.10;;;26.20;99.90;;;;;;5038036;28;20037;-82
2022/07/12 08:18:03;;;;;;;0.05;0.05;;;26.40;99.90;;;;;;5021011;28;20501;-82
2022/07/12 08:20:29;;;;;;;0.32;0.30;;;26.90;99.90;;;;;;5036503;28;20037;-82
2022/07/12 08:22:54;;;;;;;0.10;0.10;;;27.50;99.90;;;;;;5037755;28;20068;-82
2022/07/12 08:25:20;;;;;;;0.00;0.00;;;28.00;99.90;;;;;;5037855;28;20076;-82
2022/07/12 08:27:46;;;;;;;0.10;0.10;;;28.70;99.90;;;;;;5020837;28;20044;-82
2022/07/12 08:30:11;;;;;;;0.05;0.05;;;29.40;99.90;;;;;;5037483;28;20052;-82
2022/07/12 08:32:42;;;;;;;0.10;0.10;;;30.40;99.40;;;;;;5037473;28;20045;-82
2022/07/12 08:35:08;;;;;;;0.10;0.10;;;31.20;97.10;;;;;;5037864;28;20446;-82
2022/07/12 08:37:33;;;;;;;0.10;0.10;;;32.10;97.30;;;;;;5020697;28;20033;-82
2022/07/12 08:39:59;;;;;;;0.05;0.05;;;32.90;96.40;;;;;;5037377;28;20087;-82
2022/07/12 08:42:25;;;;;;;0.35;0.35;;;33.00;95.40;;;;;;5020758;28;20526;-81
2022/07/12 08:44:55;;;;;;;0.10;0.10;;;33.00;93.80;;;;;;5020880;28;20048;-81
2022/07/12 08:47:21;;;;;;;0.40;0.40;;;33.10;93.40;;;;;;5036896;28;20099;-81
2022/07/12 08:50:10;;;;;;;0.10;0.10;;;33.20;94.10;;;;;;5037273;28;20045;-80
2022/07/12 08:52:42;;;;;;;0.10;0.10;;;33.30;93.70;;;;;;5020598;28;20498;-81
2022/07/12 08:55:24;;;;;;;0.10;0.10;;;33.40;92.40;;;;;;5037226;28;20041;-81
2022/07/12 08:57:55;;;;;;;0.10;0.10;;;33.40;92.10;;;;;;5019722;28;20041;-82
2022/07/12 09:00:22;;;;;;;0.15;0.15;;;33.50;93.20;;;;;;5017153;28;20557;-82
2022/07/12 09:02:53;;;;;;;0.10;0.10;;;33.70;92.70;;;;;;5020698;28;20455;-82
2022/07/12 09:05:20;;;;;;;0.00;0.00;;;33.90;92.20;;;;;;5037212;28;20037;-83
2022/07/12 09:07:47;;;;;;;0.13;0.13;;;34.10;91.00;;;;;;5035396;28;20102;-82
2022/07/12 09:10:13;;;;;;;0.10;0.10;;;34.60;90.90;;;;;;5037158;28;20041;-82
2022/07/12 09:12:41;;;;;;;0.15;0.15;;;35.30;91.80;;;;;;5020122;28;20045;-82
2022/07/12 09:15:23;;;;;;;0.10;0.10;;;35.50;91.30;;;;;;5004156;28;20442;-81
2022/07/12 09:18:04;;;;;;;0.10;0.10;;;35.30;90.30;;;;;;5016872;28;20037;-81
2022/07/12 09:20:32;;;;;;;0.45;0.28;;;35.10;89.00;;;;;;5034580;28;20144;-81
2022/07/12 09:23:05;;;;;;;0.10;0.10;;;34.30;89.30;;;;;;5019934;28;20498;-80
2022/07/12 09:25:34;;;;;;;0.35;0.30;;;34.40;89.70;;;;;;5036434;28;20041;-81
2022/07/12 09:28:04;;;;;;;0.40;0.30;;;35.20;88.80;;;;;;5036289;28;20491;-81
2022/07/12 09:30:30;;;;;;;0.20;0.20;;;34.70;86.10;;;;;;5036889;28;20080;-81
2022/07/12 09:36:13;;;;;;;0.25;0.25;;;34.90;88.20;;;;;;5036418;28;20166;-81
2022/07/12 09:39:00;;;;;;;0.20;0.20;;;35.50;89.60;;;;;;5036294;28;20041;-81
2022/07/12 09:41:26;;;;;;;0.77;0.63;;;35.50;86.80;;;;;;5035513;28;20049;-81
2022/07/12 09:43:53;;;;;;;0.10;0.10;;;36.40;85.80;;;;;;5036110;28;20170;-81
2022/07/12 09:46:19;;;;;;;0.17;0.17;;;36.30;82.70;;;;;;5036529;28;20091;-81
2022/07/12 09:48:45;;;;;;;0.00;0.00;;;36.20;81.00;;;;;;5036116;28;20044;-81
2022/07/12 09:51:18;;;;;;;0.10;0.10;;;36.70;84.70;;;;;;5035831;28;20045;-81
2022/07/12 09:53:48;;;;;;;0.75;0.75;;;37.20;84.50;;;;;;5019437;28;20089;-82
2022/07/12 09:56:16;;;;;;;0.35;0.35;;;37.10;80.60;;;;;;5019425;28;20457;-81
2022/07/12 09:58:57;;;;;;;0.47;0.47;;;36.80;79.90;;;;;;5035724;28;20048;-81
2022/07/12 10:01:24;;;;;;;0.10;0.10;;;36.50;80.90;;;;;;5019387;28;20127;-81
2022/07/12 10:03:52;;;;;;;0.10;0.10;;;36.10;82.70;;;;;;5018937;28;20168;-82
2022/07/12 10:06:30;;;;;;;0.20;0.20;;;35.60;81.30;;;;;;5034615;28;20151;-83
2022/07/12 10:08:57;;;;;;;0.30;0.30;;;34.60;80.70;;;;;;5035183;28;20045;-82
2022/07/12 10:11:24;;;;;;;0.32;0.32;;;33.60;82.60;;;;;;5035364;28;20041;-83
2022/07/12 10:13:51;;;;;;;0.10;0.10;;;33.00;84.60;;;;;;5018178;28;20037;-82
2022/07/12 10:16:26;;;;;;;0.55;0.55;;;32.50;86.00;;;;;;5033911;28;20044;-82
2022/07/12 10:19:20;;;;;;;0.30;0.30;;;32.40;86.30;;;;;;5034078;28;20044;-82
2022/07/12 10:21:48;;;;;;;0.22;0.22;;;32.10;87.40;;;;;;5026130;28;20048;-81
2022/07/12 10:24:32;;;;;;;0.35;0.35;;;32.40;86.60;;;;;;5034902;28;20041;-81
2022/07/12 10:27:21;;;;;;;0.28;0.28;;;32.70;86.60;;;;;;5035459;28;20044;-81
2022/07/12 10:29:52;;;;;;;0.20;0.20;;;32.80;86.50;;;;;;5018258;28;20095;-81
2022/07/12 10:32:26;;;;;;;0.10;0.10;;;32.90;87.70;;;;;;5035317;28;20491;-81
2022/07/12 10:35:00;;;;;;;0.35;0.35;;;33.20;88.20;;;;;;5035094;28;20037;-81
2022/07/12 10:37:26;;;;;;;0.10;0.10;;;33.80;86.70;;;;;;5035487;28;20044;-83
2022/07/12 10:40:19;;;;;;;0.10;0.10;;;34.30;86.80;;;;;;5035601;28;20099;-83
2022/07/12 10:43:00;;;;;;;0.52;0.52;;;34.70;84.70;;;;;;5035438;28;20049;-82
2022/07/12 10:45:30;;;;;;;0.32;0.32;;;35.10;82.60;;;;;;5045413;22;20414;-83
2022/07/12 10:47:57;;;;;;;0.25;0.25;;;35.30;81.60;;;;;;5054748;28;20097;-82
2022/07/12 10:50:41;;;;;;;0.28;0.28;;;35.70;82.90;;;;;;5038959;28;20036;-82
2022/07/12 10:53:22;;;;;;;0.38;0.38;;;36.30;80.90;;;;;;5054909;28;20051;-83
2022/07/12 10:56:06;;;;;;;0.40;0.40;;;36.20;80.70;;;;;;5051590;28;20093;-84
2022/07/12 10:58:38;;;;;;;0.10;0.10;;;35.20;80.20;;;;;;5054609;28;20068;-83
2022/07/12 11:01:06;;;;;;;0.20;0.20;;;34.90;81.20;;;;;;5055324;28;20388;-83
2022/07/12 11:03:40;;;;;;;0.10;0.10;;;35.00;82.10;;;;;;5054595;28;20032;-83
2022/07/12 11:06:10;;;;;;;0.22;0.20;;;35.50;82.40;;;;;;5055216;28;20063;-83
2022/07/12 11:08:59;;;;;;;0.45;0.45;;;35.90;79.40;;;;;;5055167;28;20391;-83
2022/07/12 11:11:40;;;;;;;0.32;0.32;;;36.10;79.00;;;;;;5054899;28;20072;-81
2022/07/12 11:14:05;;;;;;;6.40;0.93;;;36.00;78.40;;;;;;5038164;28;20455;-81
2022/07/12 11:16:31;;;;;;;0.10;0.10;;;35.70;78.50;;;;;;5037539;28;20076;-81
2022/07/12 11:18:58;;;;;;;0.43;0.22;;;35.70;79.60;;;;;;5054496;28;20051;-82
2022/07/12 11:21:24;;;;;;;0.98;0.40;;;35.80;79.30;;;;;;5054710;28;20036;-81
2022/07/12 11:23:51;;;;;;;0.70;0.65;;;35.80;78.60;;;;;;5054807;28;20082;-82
2022/07/12 11:26:17;;;;;;;0.30;0.30;;;35.60;78.50;;;;;;5054844;28;20044;-82
2022/07/12 11:28:45;;;;;;;0.43;0.43;;;35.60;79.30;;;;;;5054401;28;20439;-82
2022/07/12 11:31:15;;;;;;;0.28;0.28;;;35.80;79.00;;;;;;5057094;28;20055;-82
2022/07/12 11:33:46;;;;;;;0.15;0.15;;;35.60;78.80;;;;;;5038896;28;20386;-82
2022/07/12 11:36:13;;;;;;;0.68;0.63;;;36.00;77.60;;;;;;5055322;28;20032;-82
2022/07/12 11:38:41;;;;;;;0.20;0.20;;;36.20;77.70;;;;;;5041751;28;20525;-83
2022/07/12 11:41:09;;;;;;;0.20;0.20;;;36.40;77.10;;;;;;5058753;28;20071;-82
2022/07/12 11:43:36;;;;;;;0.30;0.30;;;35.80;74.00;;;;;;5058109;28;20051;-81
2022/07/12 11:46:03;;;;;;;0.17;0.17;;;35.40;74.20;;;;;;5057167;28;20044;-81
2022/07/12 11:48:32;;;;;;;0.30;0.30;;;35.20;74.90;;;;;;5044006;28;20542;-82
2022/07/12 11:51:05;;;;;;;0.10;0.10;;;35.00;74.30;;;;;;5039014;28;20049;-82
2022/07/12 11:53:32;;;;;;;0.10;0.10;;;34.70;74.50;;;;;;5021985;28;20048;-82
2022/07/12 11:55:59;;;;;;;0.20;0.20;;;34.50;75.00;;;;;;5039151;28;20044;-82
2022/07/12 11:58:27;;;;;;;0.10;0.10;;;34.60;75.40;;;;;;5057245;28;20036;-82
2022/07/12 12:00:53;;;;;;;0.10;0.10;;;35.10;75.70;;;;;;5058922;28;20471;-82
2022/07/12 12:03:21;;;;;;;0.28;0.28;;;35.60;74.00;;;;;;5058588;28;20048;-82
2022/07/12 12:05:48;;;;;;;0.20;0.20;;;36.00;73.40;;;;;;5058396;28;20502;-82
2022/07/12 12:08:15;;;;;;;0.20;0.20;;;36.20;72.40;;;;;;5041609;28;20051;-81
2022/07/12 12:10:42;;;;;;;0.32;0.32;;;36.10;73.00;;;;;;5041941;28;20482;-82
2022/07/12 12:13:16;;;;;;;0.15;0.15;;;36.10;71.30;;;;;;5058077;28;20048;-82
2022/07/12 12:15:52;;;;;;;0.13;0.13;;;35.90;72.20;;;;;;5038162;28;20095;-82
2022/07/12 12:18:28;;;;;;;0.10;0.10;;;36.00;71.80;;;;;;5049008;28;20036;-84
2022/07/12 12:20:59;;;;;;;0.00;0.00;;;35.50;69.40;;;;;;5033883;28;20555;-84
2022/07/12 12:23:24;;;;;;;0.22;0.22;;;35.00;70.90;;;;;;5038476;28;20045;-84
2022/07/12 12:25:50;;;;;;;0.10;0.10;;;34.80;69.90;;;;;;5038380;28;20467;-84
2022/07/12 12:28:16;;;;;;;0.20;0.13;;;35.00;70.00;;;;;;5026318;28;20051;-84
2022/07/12 12:30:51;;;;;;;0.30;0.30;;;35.20;69.30;;;;;;5041375;28;20051;-84
2022/07/12 12:33:37;;;;;;;0.10;0.10;;;35.30;68.60;;;;;;5058153;28;20051;-84
2022/07/12 12:36:26;;;;;;;0.20;0.20;;;35.20;68.10;;;;;;5058010;28;20047;-84
2022/07/12 12:39:01;;;;;;;0.13;0.13;;;35.10;69.40;;;;;;5057491;28;20111;-84
2022/07/12 12:41:28;;;;;;;0.13;0.13;;;35.20;68.60;;;;;;5041065;28;20048;-84
2022/07/12 12:44:01;;;;;;;0.25;0.25;;;35.20;69.10;;;;;;5057496;28;20174;-84
2022/07/12 12:47:30;;;;;;;0.10;0.10;;;35.10;68.60;;;;;;5057826;28;20052;-84
2022/07/12 12:49:49;;;;;;;0.08;0.08;;;34.80;68.50;;;;;;5057453;28;20123;-82
2022/07/12 12:52:15;;;;;;;0.15;0.15;;;34.40;68.60;;;;;;5040889;28;20052;-82
2022/07/12 12:54:41;;;;;;;0.10;0.10;;;33.80;70.10;;;;;;5041057;28;20051;-81
2022/07/12 12:57:08;;;;;;;0.00;0.00;;;33.40;69.30;;;;;;5054193;28;20132;-81
2022/07/12 12:59:34;;;;;;;0.00;0.00;;;33.10;67.80;;;;;;5057374;28;20036;-82
2022/07/12 13:02:01;;;;;;;0.20;0.20;;;32.60;68.50;;;;;;5041245;28;20040;-82
2022/07/12 13:04:35;;;;;;;0.10;0.10;;;32.30;69.80;;;;;;5057724;28;20044;-81